createdAt,value
2023-03-16T06:01:46.648Z,91.50
2023-03-16T06:06:50.248Z,91.50
2023-03-16T06:11:54.678Z,91.70
2023-03-16T06:16:59.617Z,91.80
2023-03-16T06:22:03.193Z,92.10
2023-03-16T06:27:07.109Z,91.80
2023-03-16T06:32:12.365Z,92.00
2023-03-16T06:37:15.909Z,91.90
2023-03-16T06:42:19.534Z,91.80
2023-03-16T06:47:24.476Z,91.70
2023-03-16T06:52:28.370Z,91.70
2023-03-16T06:57:31.853Z,91.60
2023-03-16T07:02:36.790Z,91.40
2023-03-16T07:07:40.647Z,91.30
2023-03-16T07:12:44.118Z,91.30
2023-03-16T07:17:49.005Z,91.20
2023-03-16T07:22:52.526Z,90.70
2023-03-16T07:27:56.538Z,91.20
2023-03-16T07:33:01.905Z,90.80
2023-03-16T07:38:07.067Z,90.40
2023-03-16T07:43:10.571Z,90.50
2023-03-16T07:48:17.111Z,90.10
2023-03-16T07:53:21.753Z,89.20
2023-03-16T07:58:26.710Z,88.00
2023-03-16T08:03:32.969Z,88.00
2023-03-16T08:08:37.186Z,87.70
2023-03-16T08:13:43.887Z,88.00
2023-03-16T08:18:50.250Z,86.70
2023-03-16T08:23:54.041Z,85.70
2023-03-16T08:29:03.182Z,85.80
2023-03-16T08:34:10.105Z,85.60
2023-03-16T08:39:14.128Z,85.00
2023-03-16T08:44:19.087Z,84.80
2023-03-16T08:49:24.195Z,83.60
2023-03-16T08:54:32.433Z,83.20
2023-03-16T08:59:36.464Z,82.80
2023-03-16T09:04:41.576Z,82.70
2023-03-16T09:09:45.223Z,82.00
2023-03-16T09:14:49.036Z,81.60
2023-03-16T09:19:57.681Z,81.10
2023-03-16T09:25:07.197Z,80.40
2023-03-16T09:30:11.630Z,79.50
2023-03-16T09:35:16.589Z,79.10
2023-03-16T09:40:22.955Z,78.60
2023-03-16T09:45:34.388Z,78.20
2023-03-16T09:50:48.919Z,77.50
2023-03-16T09:55:54.762Z,77.20
2023-03-16T10:01:03.208Z,76.90
2023-03-16T10:06:13.801Z,76.30
2023-03-16T10:11:23.509Z,76.30
2023-03-16T10:16:28.616Z,76.50
2023-03-16T10:21:36.277Z,76.80
2023-03-16T10:26:44.272Z,77.90
2023-03-16T10:31:48.849Z,76.50
2023-03-16T10:36:55.130Z,76.20
2023-03-16T10:41:58.967Z,75.50
2023-03-16T10:47:03.391Z,76.00
2023-03-16T10:52:14.781Z,75.90
2023-03-16T10:57:22.707Z,75.10
2023-03-16T11:02:31.827Z,75.00
2023-03-16T11:07:37.199Z,74.80
2023-03-16T11:12:41.511Z,74.10
2023-03-16T11:17:45.809Z,73.80
2023-03-16T11:22:51.300Z,72.40
2023-03-16T11:27:57.780Z,71.00
2023-03-16T11:33:01.882Z,70.40
2023-03-16T11:38:10.637Z,69.80
2023-03-16T11:43:27.257Z,69.10
2023-03-16T11:48:33.380Z,69.10
2023-03-16T11:53:42.637Z,68.70
2023-03-16T11:58:51.282Z,66.70
2023-03-16T12:04:03.353Z,65.90
2023-03-16T12:09:23.064Z,66.20
2023-03-16T12:14:28.912Z,65.70
2023-03-16T12:19:36.010Z,65.90
2023-03-16T12:24:43.553Z,65.10
2023-03-16T12:29:55.639Z,64.30
2023-03-16T12:35:04.363Z,63.00
2023-03-16T12:40:17.399Z,62.50
2023-03-16T12:45:25.499Z,61.40
2023-03-16T12:50:28.834Z,60.50
2023-03-16T12:55:45.620Z,59.80
2023-03-16T13:00:56.861Z,59.10
2023-03-16T13:06:01.015Z,58.10
2023-03-16T13:11:07.334Z,57.70
2023-03-16T13:16:23.628Z,57.80
2023-03-16T13:21:36.361Z,57.30
2023-03-16T13:26:43.381Z,56.50
2023-03-16T13:31:47.015Z,56.90
2023-03-16T13:36:53.911Z,56.80
2023-03-16T13:42:00.778Z,56.80
2023-03-16T13:47:05.121Z,56.40
2023-03-16T13:52:13.029Z,56.30
2023-03-16T13:57:19.250Z,55.90
2023-03-16T14:02:23.445Z,55.50
2023-03-16T14:07:27.838Z,55.50
2023-03-16T14:12:32.592Z,55.20
2023-03-16T14:17:36.351Z,54.90
2023-03-16T14:22:39.810Z,54.80
2023-03-16T14:27:46.915Z,54.30
2023-03-16T14:32:58.373Z,53.50
2023-03-16T14:38:16.909Z,53.80
2023-03-16T14:43:22.785Z,53.90
2023-03-16T14:48:26.708Z,54.20
2023-03-16T14:53:30.800Z,54.10
2023-03-16T14:58:36.537Z,53.90
2023-03-16T15:03:41.595Z,53.60
2023-03-16T15:08:46.975Z,53.20
2023-03-16T15:14:03.996Z,54.10
2023-03-16T15:19:07.395Z,54.10
2023-03-16T15:24:12.612Z,54.00
2023-03-16T15:29:19.814Z,53.70
2023-03-16T15:34:23.676Z,53.90
2023-03-16T15:39:28.053Z,53.60
2023-03-16T15:44:32.808Z,53.70
2023-03-16T15:49:47.188Z,53.40
2023-03-16T15:54:51.346Z,54.40
2023-03-16T15:59:56.098Z,54.90
2023-03-16T16:04:59.974Z,55.10
2023-03-16T16:10:03.397Z,55.30
2023-03-16T16:15:18.672Z,55.80
2023-03-16T16:20:23.942Z,55.90
2023-03-16T16:25:30.298Z,56.00
2023-03-16T16:30:36.100Z,56.30
2023-03-16T16:35:40.260Z,56.40
2023-03-16T16:40:46.205Z,56.60
2023-03-16T16:45:51.147Z,56.60
2023-03-16T16:50:54.548Z,56.50
2023-03-16T16:55:58.281Z,57.00
2023-03-16T17:01:04.337Z,57.00
2023-03-16T17:06:08.017Z,57.30
2023-03-16T17:11:14.225Z,57.70
2023-03-16T17:16:20.322Z,57.80
2023-03-16T17:21:25.251Z,58.20
2023-03-16T17:26:30.109Z,58.60
2023-03-16T17:31:36.640Z,58.90
2023-03-16T17:36:40.014Z,59.20
2023-03-16T17:41:43.576Z,59.40
2023-03-16T17:46:48.888Z,59.70
2023-03-16T17:51:52.257Z,59.90
2023-03-16T17:56:55.587Z,60.20
2023-03-16T18:02:00.558Z,60.40
2023-03-16T18:07:03.947Z,59.70
2023-03-16T18:12:07.579Z,60.70
2023-03-16T18:17:16.969Z,61.10
2023-03-16T18:22:22.101Z,61.40
2023-03-16T18:27:25.668Z,61.60
2023-03-16T18:32:31.217Z,61.90
2023-03-16T18:37:34.638Z,62.40
2023-03-16T18:42:38.028Z,62.40
2023-03-16T18:47:44.122Z,62.70
2023-03-16T18:52:47.474Z,62.40
2023-03-16T18:57:52.683Z,62.60
2023-03-16T19:02:59.089Z,63.00
2023-03-16T19:08:03.511Z,62.80
2023-03-16T19:13:11.027Z,63.40
2023-03-16T19:18:15.952Z,63.20
2023-03-16T19:23:21.892Z,63.20
2023-03-16T19:28:28.239Z,62.90
2023-03-16T19:33:32.889Z,63.40
2023-03-16T19:38:36.392Z,63.70
2023-03-16T19:43:39.763Z,64.30
2023-03-16T19:48:44.722Z,63.90
2023-03-16T19:53:48.349Z,63.90
2023-03-16T19:58:53.597Z,63.80
2023-03-16T20:03:59.574Z,64.10
2023-03-16T20:09:03.020Z,64.00
2023-03-16T20:14:06.646Z,64.00
2023-03-16T20:19:13.861Z,64.10
2023-03-16T20:24:18.690Z,64.00
2023-03-16T20:29:24.464Z,64.10
2023-03-16T20:34:30.815Z,64.30
2023-03-16T20:39:36.394Z,64.60
2023-03-16T20:44:39.747Z,64.80
2023-03-16T20:49:44.717Z,64.50
2023-03-16T20:54:48.291Z,64.90
2023-03-16T20:59:53.867Z,65.30
2023-03-16T21:04:59.753Z,65.10
2023-03-16T21:10:03.131Z,64.70
2023-03-16T21:15:15.436Z,65.30
2023-03-16T21:20:21.147Z,64.80
2023-03-16T21:25:25.745Z,64.60
2023-03-16T21:30:31.858Z,64.40
2023-03-16T21:35:38.063Z,65.50
2023-03-16T21:40:41.509Z,65.60
2023-03-16T21:45:45.351Z,65.50
2023-03-16T21:50:50.690Z,65.80
2023-03-16T21:55:54.623Z,65.50
2023-03-16T22:00:58.295Z,66.10
2023-03-16T22:06:03.055Z,66.60
2023-03-16T22:11:11.449Z,66.90
2023-03-16T22:16:16.512Z,68.80
2023-03-16T22:21:26.370Z,67.00
2023-03-16T22:26:30.016Z,67.10
2023-03-16T22:31:34.543Z,67.20
2023-03-16T22:36:39.339Z,66.00
2023-03-16T22:41:42.677Z,67.00
2023-03-16T22:46:46.073Z,67.30
2023-03-16T22:51:51.134Z,67.10
2023-03-16T22:56:54.717Z,67.10
2023-03-16T23:01:58.313Z,67.30
2023-03-16T23:07:03.752Z,67.40
2023-03-16T23:12:12.242Z,67.50
2023-03-16T23:17:17.633Z,67.50
2023-03-16T23:22:22.402Z,67.70
2023-03-16T23:27:25.770Z,67.50
